Time;durP1;ratioP1;P1;durP2;ratioP2;P2;SDS_P1;SDS_P2;PMS_P1;PMS_P2;Temp;Humidity;BMP_temperature;BMP_pressure;BME280_temperature;BME280_humidity;BME280_pressure;Samples;Min_cycle;Max_cycle;Signal;HPM_P1;HPM_P2
2022/01/17 00:00:10;;;;;;;133.40;58.63;;;;;;;-142.91;100.00;56616.03;5061984;28;20234;-75
2022/01/17 00:02:37;;;;;;;134.97;59.23;;;;;;;-142.91;100.00;56616.03;5061536;28;20263;-75
2022/01/17 00:05:05;;;;;;;135.53;58.90;;;;;;;-142.91;100.00;56616.03;5061876;28;20270;-76
2022/01/17 00:07:34;;;;;;;131.57;55.83;;;;;;;-142.91;100.00;56616.03;5060739;28;20269;-70
2022/01/17 00:10:01;;;;;;;144.07;57.50;;;;;;;-142.91;100.00;56616.03;5061524;28;20311;-69
2022/01/17 00:12:30;;;;;;;131.03;56.00;;;;;;;-142.91;100.00;56616.03;5058517;28;20191;-70
2022/01/17 00:14:57;;;;;;;157.03;58.80;;;;;;;-142.91;100.00;56616.03;5059385;28;20591;-70
2022/01/17 00:17:31;;;;;;;135.10;56.03;;;;;;;-142.91;100.00;56616.03;5058745;28;20195;-69
2022/01/17 00:20:07;;;;;;;131.43;56.87;;;;;;;-142.91;100.00;56616.03;5057890;28;20201;-68
2022/01/17 00:22:36;;;;;;;141.43;55.23;;;;;;;-142.91;100.00;56616.03;5058724;28;20254;-69
2022/01/17 00:25:03;;;;;;;137.13;55.83;;;;;;;-142.91;100.00;56616.03;5057226;28;20212;-69
2022/01/17 00:27:31;;;;;;;131.23;55.03;;;;;;;-142.91;100.00;56616.03;5060116;28;21286;-68
2022/01/17 00:29:58;;;;;;;130.73;55.80;;;;;;;-142.91;100.00;56616.03;5060550;28;20255;-70
2022/01/17 00:32:24;;;;;;;148.63;55.53;;;;;;;-142.91;100.00;56616.03;5060981;28;20214;-70
2022/01/17 00:34:51;;;;;;;127.23;53.00;;;;;;;-142.91;100.00;56616.03;5059350;28;20638;-69
2022/01/17 00:37:18;;;;;;;122.33;54.83;;;;;;;-142.91;100.00;56616.03;5062122;28;20254;-70
2022/01/17 00:39:46;;;;;;;146.43;56.87;;;;;;;-142.91;100.00;56616.03;5059771;28;20198;-67
2022/01/17 00:42:13;;;;;;;140.70;54.27;;;;;;;-142.91;100.00;56616.03;5061356;28;20207;-69
2022/01/17 00:44:39;;;;;;;119.53;51.87;;;;;;;-142.91;100.00;56616.03;5060338;28;20259;-69
2022/01/17 00:47:07;;;;;;;130.17;53.80;;;;;;;-142.91;100.00;56616.03;5060876;28;20296;-69
2022/01/17 00:49:33;;;;;;;127.30;54.23;;;;;;;-142.91;100.00;56616.03;5060756;28;20637;-68
2022/01/17 00:52:00;;;;;;;127.37;52.50;;;;;;;-142.91;100.00;56616.03;5060084;28;20234;-68
2022/01/17 00:54:28;;;;;;;139.53;51.87;;;;;;;-142.91;100.00;56616.03;5061284;28;20288;-69
2022/01/17 00:56:56;;;;;;;149.70;52.47;;;;;;;-142.91;100.00;56616.03;5059359;28;20673;-68
2022/01/17 00:59:22;;;;;;;135.13;54.30;;;;;;;-142.91;100.00;56616.03;5059903;28;20226;-70
2022/01/17 01:01:49;;;;;;;117.20;53.53;;;;;;;-142.91;100.00;56616.03;5060396;28;20334;-68
2022/01/17 01:04:16;;;;;;;128.23;56.00;;;;;;;-142.91;100.00;56616.03;5060301;28;20198;-69
2022/01/17 01:06:43;;;;;;;144.73;58.67;;;;;;;-142.91;100.00;56616.03;5059663;28;20295;-70
2022/01/17 01:09:09;;;;;;;134.37;58.07;;;;;;;-142.91;100.00;56616.03;5059979;28;20303;-69
2022/01/17 01:11:36;;;;;;;142.50;58.00;;;;;;;-142.91;100.00;56616.03;5063150;28;20198;-69
2022/01/17 01:14:05;;;;;;;126.20;55.77;;;;;;;-142.91;100.00;56616.03;5067286;28;20198;-70
2022/01/17 01:16:34;;;;;;;146.53;58.43;;;;;;;-142.91;100.00;56616.03;5067526;28;20194;-69
2022/01/17 01:19:27;;;;;;;142.70;57.27;;;;;;;-142.91;100.00;56616.03;5057417;28;21031;-69
2022/01/17 01:27:44;;;;;;;136.40;58.63;;;;;;;-142.91;100.00;56616.03;5059853;28;20244;-69
2022/01/17 01:30:15;;;;;;;135.00;60.27;;;;;;;-142.91;100.00;56616.03;5058947;28;20210;-69
2022/01/17 01:32:46;;;;;;;141.07;58.37;;;;;;;-142.91;100.00;56616.03;5058673;28;20195;-70
2022/01/17 01:35:17;;;;;;;141.50;57.33;;;;;;;-142.91;100.00;56616.03;5060295;28;20693;-71
2022/01/17 01:37:45;;;;;;;129.47;55.00;;;;;;;-142.91;100.00;56616.03;5057664;28;20283;-68
2022/01/17 01:40:14;;;;;;;129.80;53.77;;;;;;;-142.91;100.00;56616.03;5057096;28;20233;-69
2022/01/17 01:42:40;;;;;;;130.97;52.70;;;;;;;-142.91;100.00;56616.03;5057096;28;20209;-69
2022/01/17 01:45:09;;;;;;;129.13;51.90;;;;;;;-142.91;100.00;56616.03;5059686;28;20233;-68
2022/01/17 01:47:38;;;;;;;124.47;51.90;;;;;;;-142.91;100.00;56616.03;5056223;28;20786;-69
2022/01/17 01:50:07;;;;;;;123.73;51.47;;;;;;;-142.91;100.00;56616.03;5056323;28;20612;-69
2022/01/17 01:52:34;;;;;;;126.10;52.47;;;;;;;-142.91;100.00;56616.03;5055819;28;20802;-69
2022/01/17 01:55:00;;;;;;;131.13;55.07;;;;;;;-142.91;100.00;56616.03;5055957;28;20299;-69
2022/01/17 01:57:27;;;;;;;137.13;58.47;;;;;;;-142.91;100.00;56616.03;5060428;28;20279;-68
2022/01/17 01:59:54;;;;;;;140.07;56.07;;;;;;;-142.91;100.00;56616.03;5067159;28;20218;-70
2022/01/17 02:02:21;;;;;;;150.73;60.47;;;;;;;-142.91;100.00;56616.03;5065553;28;20198;-69
2022/01/17 02:04:49;;;;;;;147.97;64.03;;;;;;;-142.91;100.00;56616.03;5066493;28;20251;-69
2022/01/17 02:07:16;;;;;;;149.90;65.07;;;;;;;-142.91;100.00;56616.03;5067190;28;20226;-69
2022/01/17 02:09:43;;;;;;;148.03;58.83;;;;;;;-142.91;100.00;56616.03;5067169;28;20632;-69
2022/01/17 02:12:10;;;;;;;166.57;65.97;;;;;;;-142.91;100.00;56616.03;5067088;28;20691;-69
2022/01/17 02:14:37;;;;;;;149.83;63.77;;;;;;;-142.91;100.00;56616.03;5067676;28;20198;-69
2022/01/17 02:17:05;;;;;;;150.90;59.43;;;;;;;-142.91;100.00;56616.03;5067886;28;20255;-70
2022/01/17 02:19:34;;;;;;;146.50;64.47;;;;;;;-142.91;100.00;56616.03;5068831;28;20194;-68
2022/01/17 02:22:02;;;;;;;162.17;69.20;;;;;;;-142.91;100.00;56616.03;5068860;28;20585;-68
2022/01/17 02:24:29;;;;;;;170.73;67.00;;;;;;;-142.91;100.00;56616.03;5069707;28;20351;-70
2022/01/17 02:26:56;;;;;;;160.77;65.77;;;;;;;-142.91;100.00;56616.03;5069483;28;20267;-68
2022/01/17 02:29:23;;;;;;;173.43;67.67;;;;;;;-142.91;100.00;56616.03;5069510;28;20206;-68
2022/01/17 02:31:50;;;;;;;170.70;69.00;;;;;;;-142.91;100.00;56616.03;5069425;28;20286;-69
2022/01/17 02:34:16;;;;;;;144.87;64.30;;;;;;;-142.91;100.00;56616.03;5069866;28;20693;-70
2022/01/17 02:36:43;;;;;;;163.10;68.43;;;;;;;-142.91;100.00;56616.03;5069341;28;20210;-70
2022/01/17 02:39:14;;;;;;;161.70;70.63;;;;;;;-142.91;100.00;56616.03;5069526;28;20835;-70
2022/01/17 02:41:42;;;;;;;160.03;72.10;;;;;;;-142.91;100.00;56616.03;5069847;28;20226;-70
2022/01/17 02:44:10;;;;;;;156.37;70.57;;;;;;;-142.91;100.00;56616.03;5071193;28;20562;-69
2022/01/17 02:46:37;;;;;;;166.73;71.87;;;;;;;-142.91;100.00;56616.03;5074050;28;20190;-70
2022/01/17 02:49:06;;;;;;;176.87;71.97;;;;;;;-142.91;100.00;56616.03;5073544;28;20295;-70
2022/01/17 02:51:32;;;;;;;173.73;72.80;;;;;;;-142.91;100.00;56616.03;5073487;28;20339;-70
2022/01/17 02:53:59;;;;;;;179.70;76.30;;;;;;;-142.91;100.00;56616.03;5073918;28;20195;-70
2022/01/17 02:56:28;;;;;;;180.57;77.93;;;;;;;-142.91;100.00;56616.03;5073620;28;20723;-69
2022/01/17 02:58:54;;;;;;;181.13;78.97;;;;;;;-142.91;100.00;56616.03;5073167;28;20202;-70
2022/01/17 03:01:24;;;;;;;184.90;79.50;;;;;;;-142.91;100.00;56616.03;5073683;28;20623;-70
2022/01/17 03:03:51;;;;;;;179.77;76.80;;;;;;;-142.91;100.00;56616.03;5072775;28;20669;-70
2022/01/17 03:06:18;;;;;;;180.87;76.10;;;;;;;-142.91;100.00;56616.03;5073576;28;20669;-69
2022/01/17 03:08:46;;;;;;;175.33;77.33;;;;;;;-142.91;100.00;56616.03;5073753;28;20279;-70
2022/01/17 03:11:15;;;;;;;194.30;78.50;;;;;;;-142.91;100.00;56616.03;5073775;28;20209;-68
2022/01/17 03:13:44;;;;;;;179.60;77.27;;;;;;;-142.91;100.00;56616.03;5073541;28;20281;-70
2022/01/17 03:16:14;;;;;;;171.23;74.37;;;;;;;-142.91;100.00;56616.03;5073556;28;20898;-70
2022/01/17 03:18:42;;;;;;;178.97;79.83;;;;;;;-142.91;100.00;56616.03;5073300;28;20667;-69
2022/01/17 03:21:11;;;;;;;181.37;77.20;;;;;;;-142.91;100.00;56616.03;5073699;28;20194;-70
2022/01/17 03:23:39;;;;;;;183.93;75.47;;;;;;;-142.91;100.00;56616.03;5073421;28;20288;-70
2022/01/17 03:26:07;;;;;;;188.80;81.73;;;;;;;-142.91;100.00;56616.03;5073150;28;20195;-70
2022/01/17 03:28:34;;;;;;;187.30;76.67;;;;;;;-142.91;100.00;56616.03;5071933;28;20604;-69
2022/01/17 03:31:03;;;;;;;181.70;79.80;;;;;;;-142.91;100.00;56616.03;5072629;28;20198;-70
2022/01/17 03:33:30;;;;;;;195.73;78.77;;;;;;;-142.91;100.00;56616.03;5073469;28;20244;-70
2022/01/17 03:35:57;;;;;;;181.07;78.87;;;;;;;-142.91;100.00;56616.03;5073272;28;20194;-70
2022/01/17 03:38:26;;;;;;;180.80;76.17;;;;;;;-142.91;100.00;56616.03;5073181;28;20198;-70
2022/01/17 03:40:53;;;;;;;153.50;66.10;;;;;;;-142.91;100.00;56616.03;5072890;28;20218;-70
2022/01/17 03:43:21;;;;;;;171.07;69.97;;;;;;;-142.91;100.00;56616.03;5072658;28;20661;-70
2022/01/17 03:45:49;;;;;;;140.33;57.57;;;;;;;-142.91;100.00;56616.03;5073220;28;20194;-70
2022/01/17 03:48:18;;;;;;;143.77;57.77;;;;;;;-142.91;100.00;56616.03;5070933;28;20345;-70
2022/01/17 03:50:45;;;;;;;150.33;58.90;;;;;;;-142.91;100.00;56616.03;5070839;28;20198;-69
2022/01/17 03:53:12;;;;;;;141.10;57.77;;;;;;;-142.91;100.00;56616.03;5070960;28;20191;-70
2022/01/17 03:55:39;;;;;;;153.43;62.40;;;;;;;-142.91;100.00;56616.03;5070366;28;20199;-70
2022/01/17 03:58:08;;;;;;;147.43;66.20;;;;;;;-142.91;100.00;56616.03;5070413;28;20194;-70
2022/01/17 04:00:38;;;;;;;165.80;67.03;;;;;;;-142.91;100.00;56616.03;5070745;28;20198;-69
2022/01/17 04:03:06;;;;;;;154.00;67.57;;;;;;;-142.91;100.00;56616.03;5072234;28;20194;-70
2022/01/17 04:05:35;;;;;;;157.90;64.73;;;;;;;-142.91;100.00;56616.03;5072866;28;20202;-70
2022/01/17 04:08:02;;;;;;;174.00;69.23;;;;;;;-142.91;100.00;56616.03;5072753;28;20248;-70
2022/01/17 04:10:29;;;;;;;160.17;67.93;;;;;;;-142.91;100.00;56616.03;5072740;28;20194;-69
2022/01/17 04:13:01;;;;;;;180.87;69.27;;;;;;;-142.91;100.00;56616.03;5072535;28;20236;-70
2022/01/17 04:15:28;;;;;;;160.00;67.30;;;;;;;-142.91;100.00;56616.03;5072790;28;20199;-70
2022/01/17 04:17:55;;;;;;;159.10;64.77;;;;;;;-142.91;100.00;56616.03;5072469;28;20261;-69
2022/01/17 04:20:26;;;;;;;157.10;61.80;;;;;;;-142.91;100.00;56616.03;5072332;28;20194;-70
2022/01/17 04:22:56;;;;;;;149.77;61.90;;;;;;;-142.91;100.00;56616.03;5072264;28;20230;-70
2022/01/17 04:25:25;;;;;;;170.77;68.20;;;;;;;-142.91;100.00;56616.03;5072110;28;20199;-71
2022/01/17 04:27:53;;;;;;;166.33;65.43;;;;;;;-142.91;100.00;56616.03;5071971;28;20261;-69
2022/01/17 04:30:21;;;;;;;157.23;62.60;;;;;;;-142.91;100.00;56616.03;5072095;28;20194;-70
2022/01/17 04:32:49;;;;;;;153.73;61.67;;;;;;;-142.91;100.00;56616.03;5071829;28;20194;-69
2022/01/17 04:35:20;;;;;;;134.13;56.27;;;;;;;-142.91;100.00;56616.03;5071848;28;20198;-69
2022/01/17 04:37:52;;;;;;;138.00;54.57;;;;;;;-142.91;100.00;56616.03;5071849;28;20285;-70
2022/01/17 04:40:21;;;;;;;145.40;58.93;;;;;;;-142.91;100.00;56616.03;5071863;28;20723;-69
2022/01/17 04:42:49;;;;;;;138.03;56.30;;;;;;;-142.91;100.00;56616.03;5072354;28;20190;-69
2022/01/17 04:45:19;;;;;;;140.97;56.20;;;;;;;-142.91;100.00;56616.03;5071578;28;20230;-69
2022/01/17 04:47:48;;;;;;;137.20;58.00;;;;;;;-142.91;100.00;56616.03;5071526;28;20691;-70
2022/01/17 04:50:16;;;;;;;154.37;65.83;;;;;;;-142.91;100.00;56616.03;5071525;28;20248;-70
2022/01/17 04:52:43;;;;;;;146.23;59.87;;;;;;;-142.91;100.00;56616.03;5071629;28;20749;-69
2022/01/17 04:55:14;;;;;;;132.60;59.73;;;;;;;-142.91;100.00;56616.03;5071652;28;20200;-69
2022/01/17 04:57:42;;;;;;;151.53;64.10;;;;;;;-142.91;100.00;56616.03;5071429;28;20228;-69
2022/01/17 05:00:11;;;;;;;144.63;59.17;;;;;;;-142.91;100.00;56616.03;5071534;28;20194;-70
2022/01/17 05:02:38;;;;;;;156.70;60.93;;;;;;;-142.91;100.00;56616.03;5071060;28;20194;-69
2022/01/17 05:05:05;;;;;;;117.00;52.23;;;;;;;-142.91;100.00;56616.03;5071010;28;20671;-71
2022/01/17 05:07:33;;;;;;;118.57;45.77;;;;;;;-142.91;100.00;56616.03;5070578;28;20199;-71
2022/01/17 05:09:59;;;;;;;89.33;38.33;;;;;;;-142.91;100.00;56616.03;5071526;28;20232;-69
2022/01/17 05:12:27;;;;;;;83.17;36.67;;;;;;;-142.91;100.00;56616.03;5071261;28;20194;-69
2022/01/17 05:14:55;;;;;;;91.93;37.80;;;;;;;-142.91;100.00;56616.03;5071404;28;20627;-69
2022/01/17 05:17:37;;;;;;;92.50;34.50;;;;;;;-142.91;100.00;56616.03;5071084;28;20202;-70
2022/01/17 05:20:06;;;;;;;80.73;38.03;;;;;;;-142.91;100.00;56616.03;5071312;28;20202;-69
2022/01/17 05:22:37;;;;;;;84.43;34.63;;;;;;;-142.91;100.00;56616.03;5070290;28;20230;-70
2022/01/17 05:25:08;;;;;;;89.57;36.33;;;;;;;-142.91;100.00;56616.03;5070101;28;20220;-71
2022/01/17 05:27:36;;;;;;;76.10;33.93;;;;;;;-142.91;100.00;56616.03;5070746;28;20195;-71
2022/01/17 05:30:07;;;;;;;84.93;35.67;;;;;;;-142.91;100.00;56616.03;5071352;28;20261;-69
2022/01/17 05:32:34;;;;;;;98.20;38.00;;;;;;;-142.91;100.00;56616.03;5071098;28;20225;-70
2022/01/17 05:35:00;;;;;;;84.93;35.70;;;;;;;-142.91;100.00;56616.03;5070718;28;20199;-70
2022/01/17 05:37:27;;;;;;;90.82;44.83;;;;;;;-142.91;100.00;56616.03;5069625;28;20425;-70
2022/01/17 05:39:54;;;;;;;85.07;39.47;;;;;;;-142.91;100.00;56616.03;5069801;28;20195;-70
2022/01/17 05:42:20;;;;;;;77.67;37.57;;;;;;;-142.91;100.00;56616.03;5068723;28;20272;-70
2022/01/17 05:44:48;;;;;;;94.83;37.57;;;;;;;-142.91;100.00;56616.03;5068557;28;20746;-71
2022/01/17 05:47:16;;;;;;;110.72;52.30;;;;;;;-142.91;100.00;56616.03;5067769;28;20494;-72
2022/01/17 05:49:43;;;;;;;111.27;48.37;;;;;;;-142.91;100.00;56616.03;5069474;28;20295;-68
2022/01/17 05:52:11;;;;;;;114.83;48.63;;;;;;;-142.91;100.00;56616.03;5068413;28;20256;-69
2022/01/17 05:54:41;;;;;;;115.67;51.07;;;;;;;-142.91;100.00;56616.03;5068894;28;20202;-70
2022/01/17 05:57:08;;;;;;;105.17;43.93;;;;;;;-142.91;100.00;56616.03;5070775;28;20194;-70
2022/01/17 05:59:35;;;;;;;103.50;42.97;;;;;;;-142.91;100.00;56616.03;5070446;28;20214;-70
2022/01/17 06:02:02;;;;;;;98.47;43.13;;;;;;;-142.91;100.00;56616.03;5070315;28;20278;-70
2022/01/17 06:04:31;;;;;;;97.50;43.20;;;;;;;-142.91;100.00;56616.03;5070037;28;20194;-71
2022/01/17 06:06:57;;;;;;;94.37;43.20;;;;;;;-142.91;100.00;56616.03;5070148;28;20260;-71
2022/01/17 06:09:24;;;;;;;87.67;42.23;;;;;;;-142.91;100.00;56616.03;5069876;28;20222;-70
2022/01/17 06:11:51;;;;;;;94.27;40.83;;;;;;;-142.91;100.00;56616.03;5070018;28;20190;-70
2022/01/17 06:14:18;;;;;;;95.93;41.67;;;;;;;-142.91;100.00;56616.03;5070135;28;20562;-72
2022/01/17 06:16:46;;;;;;;227.03;82.93;;;;;;;-142.91;100.00;56616.03;5070036;28;20198;-69
2022/01/17 06:19:13;;;;;;;186.80;71.77;;;;;;;-142.91;100.00;56616.03;5070060;28;20248;-69
2022/01/17 06:21:42;;;;;;;184.33;68.67;;;;;;;-142.91;100.00;56616.03;5069465;28;20253;-69
2022/01/17 06:24:10;;;;;;;174.87;69.43;;;;;;;-142.91;100.00;56616.03;5069656;28;20230;-70
2022/01/17 06:26:38;;;;;;;159.70;62.60;;;;;;;-142.91;100.00;56616.03;5070274;28;20195;-69
2022/01/17 06:29:05;;;;;;;122.57;53.07;;;;;;;-142.91;100.00;56616.03;5069572;28;20248;-70
2022/01/17 06:31:31;;;;;;;99.23;41.20;;;;;;;-142.91;100.00;56616.03;5070140;28;20198;-70
2022/01/17 06:33:58;;;;;;;72.70;31.93;;;;;;;-142.91;100.00;56616.03;5070430;28;20222;-70
2022/01/17 06:36:25;;;;;;;70.33;29.77;;;;;;;-142.91;100.00;56616.03;5069846;28;20221;-69
2022/01/17 06:38:53;;;;;;;70.20;32.33;;;;;;;-142.91;100.00;56616.03;5070278;28;20190;-69
2022/01/17 06:41:20;;;;;;;79.47;32.67;;;;;;;-142.91;100.00;56616.03;5069800;28;20272;-69
2022/01/17 06:43:47;;;;;;;68.87;30.93;;;;;;;-142.91;100.00;56616.03;5069619;28;20191;-68
2022/01/17 06:46:14;;;;;;;73.87;32.40;;;;;;;-142.91;100.00;56616.03;5069763;28;20198;-69
2022/01/17 06:48:42;;;;;;;68.27;29.87;;;;;;;-142.91;100.00;56616.03;5069625;28;20722;-70
2022/01/17 06:51:08;;;;;;;62.53;29.60;;;;;;;-142.91;100.00;56616.03;5069698;28;20190;-69
2022/01/17 06:53:35;;;;;;;55.63;26.50;;;;;;;-142.91;100.00;56616.03;5069729;28;20632;-70
2022/01/17 06:56:05;;;;;;;47.85;22.45;;;;;;;-142.91;100.00;56616.03;5069454;28;20244;-69
2022/01/17 06:58:32;;;;;;;42.77;19.67;;;;;;;-142.91;100.00;56616.03;5068383;28;20586;-68
2022/01/17 07:00:59;;;;;;;40.10;18.27;;;;;;;-142.91;100.00;56616.03;5069813;28;20299;-68
2022/01/17 07:03:25;;;;;;;26.53;13.03;;;;;;;-142.91;100.00;56616.03;5069109;28;20211;-70
2022/01/17 07:05:52;;;;;;;21.70;11.57;;;;;;;-142.91;100.00;56616.03;5069731;28;20195;-69
2022/01/17 07:08:19;;;;;;;21.97;11.30;;;;;;;-142.91;100.00;56616.03;5069839;28;20573;-70
2022/01/17 07:10:45;;;;;;;21.60;11.27;;;;;;;-142.91;100.00;56616.03;5069977;28;20268;-69
2022/01/17 07:13:13;;;;;;;22.30;11.03;;;;;;;-142.91;100.00;56616.03;5069710;28;20191;-69
2022/01/17 07:15:40;;;;;;;26.67;11.03;;;;;;;-142.91;100.00;56616.03;5069669;28;20275;-70
2022/01/17 07:18:07;;;;;;;21.07;10.33;;;;;;;-142.91;100.00;56616.03;5069973;28;20198;-71
2022/01/17 07:20:34;;;;;;;16.33;8.30;;;;;;;-142.91;100.00;56616.03;5067614;28;20285;-70
2022/01/17 07:23:01;;;;;;;13.80;9.05;;;;;;;-142.91;100.00;56616.03;5067231;28;20315;-70
2022/01/17 07:25:27;;;;;;;17.33;7.90;;;;;;;-142.91;100.00;56616.03;5067683;28;20209;-69
2022/01/17 07:27:55;;;;;;;15.55;8.50;;;;;;;-142.91;100.00;56616.03;5067651;28;20256;-71
2022/01/17 07:30:23;;;;;;;14.47;7.50;;;;;;;-142.91;100.00;56616.03;5069714;28;20291;-70
2022/01/17 07:32:50;;;;;;;16.80;7.53;;;;;;;-142.91;100.00;56616.03;5071094;28;20248;-69
2022/01/17 07:35:17;;;;;;;18.20;9.63;;;;;;;-142.91;100.00;56616.03;5072571;28;20687;-69
2022/01/17 07:37:43;;;;;;;12.40;6.93;;;;;;;-142.91;100.00;56616.03;5073027;28;20685;-71
2022/01/17 07:40:11;;;;;;;19.10;6.45;;;;;;;-142.91;100.00;56616.03;5072965;28;20214;-69
2022/01/17 07:42:38;;;;;;;10.25;6.72;;;;;;;-142.91;100.00;56616.03;5073026;28;20194;-70
2022/01/17 07:45:12;;;;;;;8.75;6.72;;;;;;;-142.91;100.00;56616.03;5072816;28;20565;-70
2022/01/17 07:47:44;;;;;;;12.18;6.68;;;;;;;-142.91;100.00;56616.03;5073239;28;20198;-68
2022/01/17 07:50:17;;;;;;;13.10;8.82;;;;;;;-142.91;100.00;56616.03;5072850;28;20225;-69
2022/01/17 07:52:44;;;;;;;16.15;9.13;;;;;;;-142.91;100.00;56616.03;5072759;28;20190;-70
2022/01/17 07:55:12;;;;;;;21.30;9.68;;;;;;;-142.91;100.00;56616.03;5072696;28;20486;-70
2022/01/17 07:57:41;;;;;;;20.77;11.48;;;;;;;-142.91;100.00;56616.03;5072559;28;20190;-69
2022/01/17 08:00:10;;;;;;;20.15;11.70;;;;;;;-142.91;100.00;56616.03;5072413;28;20191;-70
2022/01/17 08:02:37;;;;;;;17.45;8.30;;;;;;;-142.91;100.00;56616.03;5072684;28;20190;-69
2022/01/17 08:05:07;;;;;;;20.63;7.25;;;;;;;-142.91;100.00;56616.03;5072554;28;20735;-69
2022/01/17 08:07:34;;;;;;;12.30;6.28;;;;;;;-142.91;100.00;56616.03;5072728;28;20194;-70
2022/01/17 08:10:01;;;;;;;6.43;4.53;;;;;;;-142.91;100.00;56616.03;5071987;28;20674;-69
2022/01/17 08:12:28;;;;;;;8.75;6.05;;;;;;;-142.91;100.00;56616.03;5072489;28;20198;-69
2022/01/17 08:14:58;;;;;;;15.00;6.75;;;;;;;-142.91;100.00;56616.03;5072531;28;20256;-71
2022/01/17 08:17:24;;;;;;;10.32;6.18;;;;;;;-142.91;100.00;56616.03;5072489;28;20202;-68
2022/01/17 08:19:51;;;;;;;8.80;5.80;;;;;;;-142.91;100.00;56616.03;5072198;28;20244;-68
2022/01/17 08:22:19;;;;;;;14.88;9.55;;;;;;;-142.91;100.00;56616.03;5071701;28;20226;-68
2022/01/17 13:31:22;;;;;;;7.65;4.22;;;;;;;4.97;56.35;95306.81;5129109;27;20551;-70
2022/01/17 13:33:50;;;;;;;3.95;3.65;;;;;;;5.00;56.00;95293.38;5128946;27;20241;-69
2022/01/17 13:36:25;;;;;;;5.50;4.88;;;;;;;5.04;55.84;95285.78;5128620;27;20196;-68
2022/01/17 13:39:05;;;;;;;17.92;10.57;;;;;;;5.09;55.27;95283.22;5128689;27;20292;-70
2022/01/17 13:41:32;;;;;;;4.05;3.30;;;;;;;4.89;55.08;95280.88;5128018;27;20192;-70
2022/01/17 13:43:59;;;;;;;7.43;4.68;;;;;;;5.23;56.74;95268.81;5126803;27;20193;-68
2022/01/17 13:46:27;;;;;;;4.07;3.65;;;;;;;5.28;54.28;95264.56;5127615;27;20193;-68
2022/01/17 13:48:54;;;;;;;4.57;3.08;;;;;;;5.45;53.21;95252.63;5128189;27;20739;-68
2022/01/17 13:51:24;;;;;;;6.97;3.50;;;;;;;5.46;53.54;95241.69;5127997;27;20196;-68
2022/01/17 13:53:54;;;;;;;3.13;2.92;;;;;;;5.54;53.45;95254.22;5128352;27;20576;-68
2022/01/17 13:56:20;;;;;;;5.90;4.07;;;;;;;5.55;53.27;95245.81;5128625;27;20196;-67
2022/01/17 13:58:51;;;;;;;4.03;3.70;;;;;;;5.54;53.90;95245.81;5128475;27;20269;-69
2022/01/17 14:01:18;;;;;;;4.95;4.55;;;;;;;5.50;53.85;95241.66;5126528;27;20558;-69
2022/01/17 14:03:46;;;;;;;4.30;4.00;;;;;;;5.56;53.78;95242.44;5126108;27;20698;-69
2022/01/17 14:06:15;;;;;;;6.10;4.05;;;;;;;5.61;53.44;95238.16;5126445;27;20565;-69
2022/01/17 14:08:43;;;;;;;8.10;4.00;;;;;;;5.63;54.07;95223.03;5126764;27;20201;-68
2022/01/17 14:11:12;;;;;;;3.10;2.80;;;;;;;5.65;54.21;95214.59;5127549;27;20196;-69
2022/01/17 14:13:45;;;;;;;3.97;3.50;;;;;;;5.52;53.92;95202.97;5127720;27;20192;-69
2022/01/17 14:16:23;;;;;;;6.20;3.63;;;;;;;5.50;53.77;95214.75;5127603;27;20250;-70
2022/01/17 14:18:54;;;;;;;4.68;3.30;;;;;;;5.51;54.25;95215.59;5127931;27;20188;-69
2022/01/17 14:21:23;;;;;;;3.65;3.35;;;;;;;5.36;54.38;95216.63;5128041;27;20275;-68
2022/01/17 14:24:03;;;;;;;4.30;3.55;;;;;;;5.31;54.09;95204.06;5128017;27;20192;-67
2022/01/17 14:26:30;;;;;;;5.32;3.72;;;;;;;5.32;53.99;95210.78;5127764;27;20272;-68
2022/01/17 14:28:57;;;;;;;4.28;3.05;;;;;;;5.23;54.69;95204.97;5127557;27;20238;-69
2022/01/17 14:31:23;;;;;;;3.97;3.50;;;;;;;5.30;54.04;95204.91;5118382;27;20197;-68
2022/01/17 14:33:54;;;;;;;5.50;4.03;;;;;;;5.29;54.23;95198.19;5114071;28;20618;-68
2022/01/17 14:36:21;;;;;;;5.38;3.75;;;;;;;5.28;54.07;95199.06;5113851;28;20193;-67
2022/01/17 14:38:50;;;;;;;3.67;3.22;;;;;;;5.18;53.83;95200.03;5113948;28;20678;-69
2022/01/17 14:41:22;;;;;;;12.93;4.00;;;;;;;5.04;54.50;95204.34;5113719;28;20667;-69
2022/01/17 14:43:53;;;;;;;6.85;3.58;;;;;;;5.09;54.14;95203.47;5113799;28;20747;-68
2022/01/17 14:46:25;;;;;;;7.20;3.63;;;;;;;5.10;54.33;95214.38;5114131;28;20197;-68
2022/01/17 14:48:54;;;;;;;3.17;2.75;;;;;;;5.15;54.49;95217.69;5113942;28;20192;-69
2022/01/17 14:51:23;;;;;;;3.43;3.13;;;;;;;4.98;54.88;95222.03;5113688;27;20736;-68
2022/01/17 14:53:54;;;;;;;4.10;3.70;;;;;;;4.85;55.43;95220.50;5113587;28;20189;-68
2022/01/17 15:02:08;;;;;;;3.40;2.70;;;;;;;4.75;55.23;95235.66;5070381;28;20706;-69
2022/01/17 15:04:40;;;;;;;10.23;4.30;;;;;;;4.63;55.90;95227.41;5105239;28;20193;-67
2022/01/17 15:07:09;;;;;;;5.97;4.60;;;;;;;4.59;56.19;95221.53;5113638;28;20211;-68
2022/01/17 15:09:36;;;;;;;5.80;3.95;;;;;;;4.54;56.34;95230.81;5113396;27;20288;-67
2022/01/17 15:12:02;;;;;;;8.10;4.95;;;;;;;4.42;56.23;95226.72;5112977;27;20272;-68
2022/01/17 15:14:29;;;;;;;5.03;3.65;;;;;;;4.43;56.65;95225.03;5113226;28;20254;-67
2022/01/17 15:16:56;;;;;;;4.47;3.83;;;;;;;4.63;56.44;95219.84;5113486;28;20197;-68
2022/01/17 15:19:23;;;;;;;9.57;3.75;;;;;;;4.48;56.52;95224.97;5112803;28;20286;-68
2022/01/17 15:21:52;;;;;;;6.40;3.70;;;;;;;4.27;57.46;95214.22;5113347;28;20205;-68
2022/01/17 15:24:19;;;;;;;4.38;3.97;;;;;;;4.08;57.94;95203.47;5112754;28;20250;-68
2022/01/17 15:26:46;;;;;;;6.97;4.38;;;;;;;4.25;57.51;95193.28;5112890;28;20197;-69
2022/01/17 15:29:21;;;;;;;3.90;3.60;;;;;;;4.28;57.52;95194.94;5112666;28;20316;-68
2022/01/17 15:31:48;;;;;;;5.07;4.03;;;;;;;4.36;57.12;95198.25;5111969;28;20193;-69
2022/01/17 15:34:15;;;;;;;14.65;7.60;;;;;;;4.20;57.57;95207.59;5111902;28;20197;-68
2022/01/17 15:36:42;;;;;;;6.93;5.03;;;;;;;4.15;57.90;95203.44;5112852;28;20193;-69
2022/01/17 15:39:10;;;;;;;4.40;3.58;;;;;;;4.13;57.61;95215.19;5112554;28;20197;-69
2022/01/17 15:41:37;;;;;;;5.35;4.38;;;;;;;3.99;57.43;95218.59;5111938;28;20254;-68
2022/01/17 15:44:04;;;;;;;7.45;3.03;;;;;;;4.05;57.73;95218.56;5111947;28;20589;-68
2022/01/17 15:46:32;;;;;;;6.75;4.65;;;;;;;3.96;58.19;95228.66;5112715;28;20197;-68
2022/01/17 15:48:59;;;;;;;3.08;2.80;;;;;;;4.12;57.29;95241.16;5111505;28;20276;-67
2022/01/17 15:51:26;;;;;;;4.72;3.53;;;;;;;4.03;57.63;95230.31;5110099;28;20189;-69
2022/01/17 15:53:53;;;;;;;7.20;4.57;;;;;;;3.98;57.65;95226.97;5111183;28;20189;-68
2022/01/17 15:56:21;;;;;;;8.40;5.03;;;;;;;3.94;57.78;95230.38;5111491;28;20245;-68
2022/01/17 15:58:48;;;;;;;5.38;4.82;;;;;;;4.07;58.29;95219.41;5111999;28;20661;-69
2022/01/17 16:01:15;;;;;;;4.78;4.10;;;;;;;4.18;57.65;95208.44;5112267;28;20224;-68
2022/01/17 16:03:41;;;;;;;4.53;3.70;;;;;;;3.89;57.93;95191.84;5112330;28;20193;-69
2022/01/17 16:06:09;;;;;;;5.75;4.47;;;;;;;3.90;58.88;95180.94;5112346;28;20228;-68
2022/01/17 16:08:37;;;;;;;4.80;4.30;;;;;;;3.89;58.61;95171.75;5111790;28;20228;-70
2022/01/17 16:11:04;;;;;;;7.70;5.03;;;;;;;3.88;59.08;95189.34;5112248;27;20197;-69
2022/01/17 16:13:32;;;;;;;5.10;4.38;;;;;;;3.90;59.33;95196.03;5112253;28;20189;-69
2022/01/17 16:16:00;;;;;;;4.97;4.50;;;;;;;3.90;58.28;95193.53;5111921;28;20250;-69
2022/01/17 16:18:26;;;;;;;6.03;4.47;;;;;;;4.01;57.74;95199.31;5112103;28;20587;-69
2022/01/17 16:20:54;;;;;;;7.25;4.68;;;;;;;3.93;57.54;95187.66;5112363;28;20690;-70
2022/01/17 16:23:21;;;;;;;6.57;4.78;;;;;;;3.92;57.54;95179.28;5111761;28;20212;-70